Time;durP1;ratioP1;P1;durP2;ratioP2;P2;SDS_P1;SDS_P2;PMS_P1;PMS_P2;Temp;Humidity;BMP_temperature;BMP_pressure;BME280_temperature;BME280_humidity;BME280_pressure;Samples;Min_cycle;Max_cycle;Signal;HPM_P1;HPM_P2
2022/07/12 00:00:46;;;;;;;3.83;2.15;;;;;;;16.93;80.81;99304.75;4934809;28;103230;-61
2022/07/12 00:03:14;;;;;;;5.32;2.47;;;;;;;17.00;80.52;99311.25;4936483;28;102614;-60
2022/07/12 00:05:42;;;;;;;2.88;2.00;;;;;;;16.93;80.96;99312.78;4938606;28;102689;-61
2022/07/12 00:08:10;;;;;;;2.00;1.83;;;;;;;16.99;80.55;99319.38;4937893;28;103552;-61
2022/07/12 00:10:38;;;;;;;2.10;1.73;;;;;;;17.11;79.74;99320.97;4939538;28;103350;-60
2022/07/12 00:13:06;;;;;;;1.70;1.60;;;;;;;17.24;78.13;99324.22;4940489;28;102801;-61
2022/07/12 00:15:35;;;;;;;1.83;1.50;;;;;;;17.36;76.80;99332.00;4940640;28;102742;-60
2022/07/12 00:18:03;;;;;;;2.42;1.88;;;;;;;17.37;77.56;99330.16;4940600;28;104119;-61
2022/07/12 00:20:31;;;;;;;2.30;2.10;;;;;;;17.34;77.58;99328.63;4941505;28;103289;-60
2022/07/12 00:22:58;;;;;;;4.30;2.03;;;;;;;17.27;78.67;99323.94;4938722;28;104366;-61
2022/07/12 00:25:26;;;;;;;2.28;2.10;;;;;;;17.10;79.93;99327.28;4941155;28;102816;-61
2022/07/12 00:27:55;;;;;;;2.08;1.98;;;;;;;16.99;80.47;99317.56;4939341;28;103296;-61
2022/07/12 00:30:23;;;;;;;2.15;1.92;;;;;;;17.00;80.36;99318.41;4924526;28;103234;-61
2022/07/12 00:32:53;;;;;;;2.30;2.10;;;;;;;17.05;79.71;99316.19;4922374;28;102774;-61
2022/07/12 00:35:21;;;;;;;1.80;1.70;;;;;;;17.16;78.15;99324.91;4939097;28;102686;-60
2022/07/12 00:37:51;;;;;;;2.85;2.20;;;;;;;17.19;78.59;99318.47;4939718;28;103378;-60
2022/07/12 00:40:19;;;;;;;1.60;1.50;;;;;;;17.23;77.92;99327.91;4939625;28;103631;-61
2022/07/12 00:42:47;;;;;;;1.80;1.70;;;;;;;17.20;78.50;99320.16;4941414;28;102701;-61
2022/07/12 00:45:16;;;;;;;2.63;2.10;;;;;;;17.10;79.84;99324.63;4943250;28;103798;-61
2022/07/12 00:47:46;;;;;;;1.88;1.70;;;;;;;17.07;79.94;99324.88;4920464;28;103723;-61
2022/07/12 00:50:17;;;;;;;2.40;2.13;;;;;;;17.12;79.36;99309.31;4939536;28;103227;-60
2022/07/12 00:52:50;;;;;;;1.85;1.73;;;;;;;16.93;81.25;99320.78;4919731;28;102798;-60
2022/07/12 00:55:20;;;;;;;3.75;2.38;;;;;;;17.04;79.75;99320.66;4940774;28;102730;-61
2022/07/12 00:57:48;;;;;;;2.75;2.10;;;;;;;17.09;79.76;99314.94;4919386;28;104098;-59
2022/07/12 01:00:18;;;;;;;1.67;1.58;;;;;;;17.14;79.75;99312.69;4939078;28;103207;-59
2022/07/12 01:02:46;;;;;;;2.70;1.85;;;;;;;17.19;79.35;99313.97;4940569;28;103225;-59
2022/07/12 01:05:17;;;;;;;2.10;1.90;;;;;;;17.15;79.91;99325.06;4937979;28;102649;-58
2022/07/12 01:07:47;;;;;;;3.22;2.28;;;;;;;16.85;81.69;99315.28;4941367;28;104030;-59
2022/07/12 01:10:15;;;;;;;2.50;2.30;;;;;;;16.87;81.97;99323.16;4941441;28;103186;-59
2022/07/12 01:12:43;;;;;;;2.70;2.30;;;;;;;16.93;81.51;99326.13;4953580;28;102666;-59
2022/07/12 01:15:11;;;;;;;2.10;1.90;;;;;;;16.98;81.00;99320.38;4939083;28;102755;-60
2022/07/12 01:17:39;;;;;;;2.10;1.65;;;;;;;17.03;80.64;99323.47;4921443;28;103315;-61
2022/07/12 01:20:08;;;;;;;2.05;1.85;;;;;;;17.04;80.95;99327.84;4939627;28;103180;-61
2022/07/12 01:22:41;;;;;;;2.25;2.05;;;;;;;17.00;81.75;99329.09;4936257;28;102796;-61
2022/07/12 01:25:11;;;;;;;2.17;1.98;;;;;;;17.04;81.46;99319.84;4921098;28;102814;-61
2022/07/12 01:27:39;;;;;;;1.80;1.70;;;;;;;17.08;80.38;99318.56;4941932;28;103262;-61
2022/07/12 01:30:08;;;;;;;1.58;1.48;;;;;;;17.19;78.44;99329.13;4938137;28;103782;-59
2022/07/12 01:32:36;;;;;;;2.50;1.80;;;;;;;17.21;79.19;99321.81;4937651;28;102844;-59
2022/07/12 01:35:07;;;;;;;2.25;2.05;;;;;;;17.14;80.19;99323.38;4952884;28;102662;-59
2022/07/12 01:37:37;;;;;;;2.72;2.15;;;;;;;17.03;81.37;99318.16;4941413;28;103254;-57
2022/07/12 01:40:08;;;;;;;2.05;1.95;;;;;;;16.97;81.52;99316.03;4937165;28;103244;-57
2022/07/12 01:42:38;;;;;;;2.22;2.03;;;;;;;16.85;82.46;99325.09;4939173;28;102765;-59
2022/07/12 01:45:08;;;;;;;2.35;2.17;;;;;;;16.83;81.95;99317.25;4939322;28;102678;-58
2022/07/12 01:47:36;;;;;;;4.32;2.40;;;;;;;16.78;82.44;99320.34;4938040;28;104136;-57
2022/07/12 01:50:07;;;;;;;2.25;2.10;;;;;;;16.78;82.35;99322.16;4938136;28;103205;-58
2022/07/12 01:52:35;;;;;;;2.33;2.13;;;;;;;16.80;81.17;99318.38;4936850;28;102598;-59
2022/07/12 01:55:04;;;;;;;2.35;2.15;;;;;;;16.83;81.14;99311.91;4921190;28;103787;-57
2022/07/12 01:57:34;;;;;;;2.25;2.15;;;;;;;16.85;80.36;99317.94;4922645;28;103293;-58
2022/07/12 02:00:05;;;;;;;2.00;1.90;;;;;;;16.86;80.01;99310.78;4939288;28;103231;-58
2022/07/12 02:02:34;;;;;;;2.53;2.15;;;;;;;16.84;79.45;99307.41;4941325;28;103085;-59
2022/07/12 02:05:03;;;;;;;2.17;1.98;;;;;;;16.83;79.75;99313.72;4942031;28;102647;-59
2022/07/12 02:07:32;;;;;;;2.15;1.95;;;;;;;16.72;81.18;99310.19;4938084;28;103303;-58
2022/07/12 02:10:37;;;;;;;3.05;2.75;;;;;;;16.51;82.72;99316.50;4936848;28;103383;-58
2022/07/12 02:13:05;;;;;;;2.83;2.45;;;;;;;16.47;82.22;99315.09;4940021;28;102796;-58
2022/07/12 02:15:34;;;;;;;2.50;2.30;;;;;;;16.50;81.48;99310.34;4939153;28;102836;-58
2022/07/12 02:18:02;;;;;;;4.45;3.13;;;;;;;16.46;82.03;99314.25;4938258;28;103262;-59
2022/07/12 02:20:55;;;;;;;3.95;2.92;;;;;;;16.50;81.43;99318.34;4937571;28;103131;-59
2022/07/12 02:23:23;;;;;;;2.50;2.10;;;;;;;16.55;80.36;99317.97;4939621;28;102755;-59
2022/07/12 02:25:51;;;;;;;2.85;2.65;;;;;;;16.47;81.79;99313.28;4939081;28;103032;-58
2022/07/12 02:28:19;;;;;;;2.80;2.60;;;;;;;16.44;81.81;99321.53;4921614;28;104407;-59
2022/07/12 02:30:48;;;;;;;2.85;2.65;;;;;;;16.97;79.20;99310.69;4918410;28;103430;-58
2022/07/12 02:33:16;;;;;;;2.83;2.53;;;;;;;17.26;77.82;99314.28;4937000;28;102774;-59
2022/07/12 02:35:44;;;;;;;2.50;2.25;;;;;;;16.76;79.91;99308.06;4938029;28;102946;-58
2022/07/12 02:38:12;;;;;;;2.90;2.67;;;;;;;16.40;81.79;99308.59;4936180;28;103244;-58
2022/07/12 02:40:55;;;;;;;2.85;2.65;;;;;;;16.24;83.09;99309.09;4921757;28;103265;-58
2022/07/12 02:43:24;;;;;;;2.65;2.45;;;;;;;16.15;83.43;99316.03;4930783;28;102656;-59
2022/07/12 02:45:56;;;;;;;2.50;2.30;;;;;;;16.01;84.42;99318.19;4932378;28;103564;-58
2022/07/12 02:48:24;;;;;;;3.40;3.10;;;;;;;15.90;85.10;99310.25;4933377;28;104089;-58
2022/07/12 02:50:52;;;;;;;3.25;2.90;;;;;;;16.49;82.09;99308.66;4928500;28;103325;-58
2022/07/12 02:53:19;;;;;;;2.90;2.70;;;;;;;16.65;80.03;99317.03;4931461;28;102645;-57
2022/07/12 02:55:47;;;;;;;3.17;2.40;;;;;;;16.67;80.49;99315.06;4915193;28;102929;-57
2022/07/12 02:58:16;;;;;;;2.70;2.50;;;;;;;16.84;79.58;99312.75;4915368;28;104016;-57
2022/07/12 03:00:44;;;;;;;2.43;2.23;;;;;;;17.01;77.46;99312.13;4918020;28;103540;-57
2022/07/12 03:03:13;;;;;;;2.22;2.03;;;;;;;17.11;77.52;99310.28;4929888;28;102958;-57
2022/07/12 03:05:42;;;;;;;2.60;2.40;;;;;;;17.06;78.05;99307.19;4930611;28;102996;-57
2022/07/12 03:08:11;;;;;;;2.60;2.40;;;;;;;16.62;79.76;99311.97;4911414;28;103223;-57
2022/07/12 03:10:40;;;;;;;2.55;2.20;;;;;;;16.85;79.14;99309.09;4909912;28;103282;-60
2022/07/12 03:13:09;;;;;;;2.25;2.15;;;;;;;16.89;78.38;99310.53;4931101;28;103090;-59
2022/07/12 03:15:37;;;;;;;2.40;2.20;;;;;;;16.94;77.45;99319.81;4929248;28;104640;-60
2022/07/12 03:18:05;;;;;;;2.00;1.90;;;;;;;17.11;76.14;99327.16;4913988;28;103322;-60
2022/07/12 03:20:35;;;;;;;2.05;1.90;;;;;;;17.20;75.53;99320.16;4931076;28;103249;-60
2022/07/12 03:23:03;;;;;;;1.90;1.80;;;;;;;17.27;74.98;99331.97;4924978;28;102850;-60
2022/07/12 03:25:31;;;;;;;2.40;2.00;;;;;;;17.12;76.53;99333.34;4932771;28;104316;-59
2022/07/12 03:27:59;;;;;;;2.30;2.10;;;;;;;17.17;76.28;99331.13;4929884;28;103321;-59
2022/07/12 03:30:28;;;;;;;1.90;1.80;;;;;;;17.25;75.14;99332.13;4925176;28;103207;-59
2022/07/12 03:32:55;;;;;;;2.30;2.10;;;;;;;17.32;75.35;99340.41;4927075;28;102816;-59
2022/07/12 03:35:24;;;;;;;2.78;2.50;;;;;;;17.19;75.08;99346.00;4930572;28;104023;-59
2022/07/12 03:37:53;;;;;;;3.20;2.90;;;;;;;17.03;77.59;99345.69;4911991;28;104106;-59
2022/07/12 03:40:23;;;;;;;2.67;2.47;;;;;;;17.18;76.52;99346.13;4929340;28;104382;-60
2022/07/12 03:42:53;;;;;;;2.50;2.30;;;;;;;17.22;76.05;99347.56;4913173;28;103085;-59
2022/07/12 03:45:21;;;;;;;2.60;2.40;;;;;;;17.33;75.39;99347.44;4913576;28;104098;-59
2022/07/12 03:47:49;;;;;;;2.67;2.47;;;;;;;17.36;75.05;99355.19;4918447;28;104237;-60
2022/07/12 03:50:17;;;;;;;2.53;2.33;;;;;;;17.37;74.32;99359.56;4913833;28;103219;-57
2022/07/12 03:52:45;;;;;;;3.00;2.80;;;;;;;17.38;74.62;99355.88;4937245;28;102709;-57
2022/07/12 03:55:14;;;;;;;2.50;2.30;;;;;;;17.38;75.03;99354.06;4938431;28;102729;-58
2022/07/12 03:57:45;;;;;;;2.97;2.78;;;;;;;17.30;75.87;99364.59;4921946;28;103760;-57
2022/07/12 04:00:14;;;;;;;2.80;2.60;;;;;;;17.39;75.46;99368.25;4936954;28;103666;-57
2022/07/12 04:02:42;;;;;;;2.72;2.53;;;;;;;17.50;75.06;99364.63;4940854;28;102683;-60
2022/07/12 04:05:12;;;;;;;2.60;2.40;;;;;;;17.57;74.94;99374.63;4921321;28;103092;-59
2022/07/12 04:07:40;;;;;;;3.20;2.90;;;;;;;17.63;75.58;99376.75;4940086;28;103301;-60
2022/07/12 04:10:09;;;;;;;3.10;2.90;;;;;;;17.68;75.81;99369.19;4922723;28;103422;-59
2022/07/12 04:12:39;;;;;;;2.95;2.25;;;;;;;17.71;75.58;99368.06;4931991;28;102775;-60
2022/07/12 04:15:10;;;;;;;2.57;2.37;;;;;;;17.80;75.20;99375.22;4935956;28;104000;-59
2022/07/12 04:17:38;;;;;;;2.60;2.40;;;;;;;17.84;74.53;99373.97;4939266;28;104395;-59
2022/07/12 04:20:07;;;;;;;2.75;2.55;;;;;;;17.96;73.07;99372.84;4938935;28;103226;-59
2022/07/12 04:22:38;;;;;;;2.87;2.67;;;;;;;18.02;73.20;99376.78;4937101;28;102738;-59
2022/07/12 04:25:08;;;;;;;3.72;3.35;;;;;;;17.95;74.91;99371.16;4937855;28;103149;-61
2022/07/12 04:27:36;;;;;;;3.40;3.10;;;;;;;17.95;74.94;99372.00;4938452;28;103237;-59
2022/07/12 04:30:07;;;;;;;3.40;3.10;;;;;;;17.99;74.86;99374.41;4938333;28;103238;-58
2022/07/12 04:32:35;;;;;;;3.30;3.00;;;;;;;18.02;74.63;99366.91;4941334;28;102606;-58
2022/07/12 04:35:03;;;;;;;3.40;2.90;;;;;;;17.45;76.93;99378.41;4941329;28;102719;-59
2022/07/12 04:37:31;;;;;;;2.80;2.58;;;;;;;17.27;77.77;99380.88;4938915;28;103175;-62
2022/07/12 04:39:59;;;;;;;2.78;2.58;;;;;;;17.21;77.99;99391.25;4934990;28;103227;-62
2022/07/12 04:42:27;;;;;;;2.67;2.22;;;;;;;17.08;78.43;99386.16;4935649;28;103826;-61
2022/07/12 04:44:55;;;;;;;3.28;2.72;;;;;;;17.04;79.07;99378.56;4930606;28;104890;-62
2022/07/12 04:47:24;;;;;;;3.08;2.70;;;;;;;16.99;79.40;99375.44;4936125;28;103227;-62
2022/07/12 04:49:52;;;;;;;3.83;2.83;;;;;;;16.95;78.71;99372.22;4922168;28;103206;-61
2022/07/12 04:52:20;;;;;;;2.97;2.78;;;;;;;16.87;79.44;99373.88;4926870;28;102861;-61
2022/07/12 04:54:48;;;;;;;3.25;2.95;;;;;;;16.90;79.80;99370.94;4920215;28;102855;-61
2022/07/12 04:57:19;;;;;;;4.20;3.75;;;;;;;16.80;80.50;99370.88;4926132;28;104071;-61
2022/07/12 04:59:48;;;;;;;3.15;2.85;;;;;;;16.82;80.97;99374.25;4909854;28;103215;-61
2022/07/12 05:02:16;;;;;;;3.97;2.40;;;;;;;16.90;80.38;99376.28;4923917;28;102680;-62
2022/07/12 05:04:46;;;;;;;5.80;3.80;;;;;;;16.92;80.47;99380.50;4931373;28;103322;-62
2022/07/12 05:07:14;;;;;;;2.70;2.50;;;;;;;17.01;80.10;99379.66;4926111;28;103419;-61
2022/07/12 05:09:43;;;;;;;2.70;2.50;;;;;;;17.08;79.09;99377.31;4927606;28;103272;-58
2022/07/12 05:12:11;;;;;;;3.80;3.50;;;;;;;17.03;79.48;99387.56;4928439;28;102742;-59
2022/07/12 05:14:39;;;;;;;3.22;2.90;;;;;;;17.09;79.59;99384.34;4929629;28;102844;-59
2022/07/12 05:17:07;;;;;;;3.47;2.80;;;;;;;17.16;79.34;99388.16;4911666;28;103300;-59
2022/07/12 05:19:35;;;;;;;3.60;3.30;;;;;;;17.21;79.28;99391.25;4922713;28;103257;-59
2022/07/12 05:22:07;;;;;;;3.67;3.05;;;;;;;17.21;79.91;99389.44;4929575;28;102751;-58
2022/07/12 05:24:35;;;;;;;2.90;2.70;;;;;;;17.34;79.27;99391.88;4927026;28;102983;-59
2022/07/12 05:27:04;;;;;;;3.15;2.63;;;;;;;17.48;78.54;99404.84;4924610;28;104024;-59
2022/07/12 05:29:32;;;;;;;2.47;2.28;;;;;;;17.55;78.51;99403.31;4932757;28;103352;-63
2022/07/12 05:32:01;;;;;;;3.00;2.63;;;;;;;17.63;78.61;99398.13;4926327;28;103314;-63
2022/07/12 05:34:39;;;;;;;2.60;2.40;;;;;;;17.64;78.44;99394.50;4911286;28;104174;-63
2022/07/12 05:37:11;;;;;;;3.00;2.70;;;;;;;17.79;77.91;99398.44;4910281;28;103371;-62
2022/07/12 05:39:39;;;;;;;2.80;2.60;;;;;;;17.92;77.23;99398.16;4931354;28;103240;-62
2022/07/12 05:42:12;;;;;;;2.53;2.33;;;;;;;18.02;76.93;99403.53;4931473;28;102820;-62
2022/07/12 05:44:40;;;;;;;3.33;3.03;;;;;;;17.76;77.60;99406.75;4913642;28;102759;-62
2022/07/12 05:47:08;;;;;;;4.15;3.83;;;;;;;17.69;78.74;99407.41;4913459;28;104092;-62
2022/07/12 05:49:36;;;;;;;4.35;4.05;;;;;;;17.58;79.98;99416.41;4908540;28;103399;-62
2022/07/12 05:54:51;;;;;;;5.28;3.80;;;;;;;17.58;80.49;99419.06;4911334;28;103227;-63
2022/07/12 05:57:19;;;;;;;3.83;3.53;;;;;;;17.74;79.84;99419.38;4927333;28;103360;-63
2022/07/12 05:59:49;;;;;;;4.63;3.83;;;;;;;17.68;79.31;99419.97;4933694;28;103203;-63
2022/07/12 06:02:17;;;;;;;5.30;3.60;;;;;;;17.81;80.11;99423.19;4937047;28;102589;-62
2022/07/12 06:04:46;;;;;;;3.88;3.58;;;;;;;17.93;79.73;99421.25;4917994;28;102779;-62
2022/07/12 06:07:18;;;;;;;2.97;2.63;;;;;;;18.33;78.08;99423.78;4935153;28;104040;-61
2022/07/12 06:09:46;;;;;;;2.88;2.67;;;;;;;18.16;77.74;99427.16;4932793;28;103219;-61
2022/07/12 06:12:15;;;;;;;2.78;2.55;;;;;;;18.46;77.57;99419.81;4934209;28;103007;-61
2022/07/12 06:14:44;;;;;;;2.47;2.28;;;;;;;18.69;75.62;99415.00;4924684;28;102783;-61
2022/07/12 06:17:12;;;;;;;2.63;2.42;;;;;;;18.62;75.10;99419.25;4926652;28;104022;-60
2022/07/12 06:19:40;;;;;;;2.80;2.22;;;;;;;18.77;75.76;99420.50;4933472;28;103000;-60
2022/07/12 06:22:08;;;;;;;2.38;1.92;;;;;;;19.04;74.17;99423.19;4936792;28;102674;-61
2022/07/12 06:24:36;;;;;;;4.55;2.05;;;;;;;19.25;73.16;99430.16;4936299;28;102687;-61
2022/07/12 06:27:05;;;;;;;2.72;1.80;;;;;;;19.40;73.03;99428.69;4932000;28;103442;-61
2022/07/12 06:29:34;;;;;;;1.85;1.55;;;;;;;19.54;71.50;99429.06;4936407;28;103254;-61
2022/07/12 06:32:02;;;;;;;1.48;1.38;;;;;;;19.62;71.90;99431.00;4934711;28;102779;-61
2022/07/12 06:34:30;;;;;;;3.40;1.60;;;;;;;19.78;70.19;99433.84;4938773;28;103845;-59
2022/07/12 06:36:58;;;;;;;2.50;1.48;;;;;;;19.72;69.35;99437.13;4933363;28;103319;-62
2022/07/12 06:39:26;;;;;;;1.83;1.55;;;;;;;19.71;69.92;99440.78;4946121;28;103436;-61
2022/07/12 06:41:54;;;;;;;1.45;1.35;;;;;;;19.84;70.06;99429.72;4930637;28;102926;-61
2022/07/12 06:44:22;;;;;;;1.42;1.33;;;;;;;20.06;68.57;99423.91;4941081;28;102614;-62
2022/07/12 06:46:51;;;;;;;1.50;1.30;;;;;;;19.97;68.60;99435.53;4938513;28;103353;-62
2022/07/12 06:49:19;;;;;;;1.92;1.23;;;;;;;19.94;68.61;99442.06;4932821;28;103245;-59
2022/07/12 06:51:47;;;;;;;1.00;1.00;;;;;;;20.27;68.25;99432.50;4930274;28;102784;-59
2022/07/12 06:54:15;;;;;;;1.10;1.00;;;;;;;20.73;65.88;99428.69;4930724;28;102710;-61
2022/07/12 06:56:43;;;;;;;1.67;1.17;;;;;;;20.96;63.85;99435.22;4934859;28;103324;-61
2022/07/12 06:59:11;;;;;;;1.35;1.10;;;;;;;21.15;63.79;99443.06;4931800;28;103175;-61
2022/07/12 07:01:43;;;;;;;1.15;1.10;;;;;;;21.50;63.55;99433.16;4945558;28;103142;-61
2022/07/12 07:04:12;;;;;;;1.60;1.13;;;;;;;21.38;64.24;99446.88;4938747;28;103001;-60
2022/07/12 07:06:41;;;;;;;1.93;1.30;;;;;;;21.49;63.44;99450.28;4931877;28;103275;-66
2022/07/12 07:09:09;;;;;;;2.20;1.30;;;;;;;21.07;61.87;99451.09;4936131;28;103240;-61
2022/07/12 07:11:36;;;;;;;1.25;0.88;;;;;;;21.15;63.99;99456.50;4932050;28;102688;-60
2022/07/12 07:14:05;;;;;;;6.97;1.38;;;;;;;21.61;61.15;99452.53;4934551;28;102794;-59
2022/07/12 07:16:33;;;;;;;2.85;1.48;;;;;;;21.61;61.54;99457.06;4939235;28;103818;-61
2022/07/12 07:19:01;;;;;;;1.10;0.77;;;;;;;21.02;61.84;99458.75;4938251;28;103218;-61
2022/07/12 07:21:30;;;;;;;0.93;0.80;;;;;;;21.25;60.98;99457.22;4936385;28;102692;-60
2022/07/12 07:23:58;;;;;;;1.70;0.80;;;;;;;21.15;62.63;99456.50;4941035;28;102805;-61
2022/07/12 07:26:26;;;;;;;1.65;0.80;;;;;;;21.56;61.33;99462.06;4945322;28;103981;-59
2022/07/12 07:31:41;;;;;;;0.80;0.70;;;;;;;22.26;58.77;99464.28;4939477;28;102930;-59
2022/07/12 07:34:09;;;;;;;0.75;0.75;;;;;;;21.75;59.08;99467.19;4937376;28;102781;-60
2022/07/12 07:36:39;;;;;;;1.27;0.90;;;;;;;21.73;59.56;99461.94;4931634;28;103915;-61
2022/07/12 07:39:09;;;;;;;0.73;0.73;;;;;;;21.94;58.97;99464.25;4935650;28;103336;-61
2022/07/12 07:41:39;;;;;;;0.70;0.60;;;;;;;22.27;58.53;99459.75;4941747;28;102734;-61
2022/07/12 07:44:07;;;;;;;1.48;0.52;;;;;;;22.42;55.65;99458.94;4935040;28;102712;-61
2022/07/12 07:46:35;;;;;;;0.43;0.43;;;;;;;22.32;56.79;99458.25;4938148;28;105386;-60
2022/07/12 07:49:04;;;;;;;0.60;0.60;;;;;;;22.14;57.92;99460.25;4935443;28;103206;-59
2022/07/12 07:51:32;;;;;;;2.45;0.88;;;;;;;22.80;55.74;99459.25;4932581;28;102769;-59
2022/07/12 07:54:02;;;;;;;0.85;0.70;;;;;;;23.15;55.57;99461.56;4936186;28;102788;-59
2022/07/12 07:56:33;;;;;;;1.00;0.70;;;;;;;23.52;54.47;99459.09;4927999;28;103290;-61
2022/07/12 07:59:01;;;;;;;0.75;0.40;;;;;;;22.38;56.75;99457.56;4934969;28;102760;-61
2022/07/12 08:01:46;;;;;;;0.93;0.60;;;;;;;22.46;55.44;99467.50;4921643;28;103236;-61
2022/07/12 08:04:15;;;;;;;0.45;0.43;;;;;;;23.34;54.33;99458.47;4938457;28;102853;-62
2022/07/12 08:06:43;;;;;;;3.03;0.68;;;;;;;23.40;52.23;99463.22;4922712;28;103525;-60
2022/07/12 08:09:14;;;;;;;1.30;0.57;;;;;;;24.07;51.11;99455.44;4920689;28;103225;-60
2022/07/12 08:11:42;;;;;;;0.73;0.50;;;;;;;22.86;53.44;99454.06;4935257;28;102822;-61
2022/07/12 08:14:11;;;;;;;0.55;0.50;;;;;;;24.09;51.67;99456.09;4935741;28;102779;-60
2022/07/12 08:16:39;;;;;;;0.75;0.57;;;;;;;23.98;51.08;99448.41;4935332;28;103297;-60
2022/07/12 08:19:07;;;;;;;0.50;0.50;;;;;;;24.27;51.04;99451.31;4936363;28;103263;-61
2022/07/12 08:21:35;;;;;;;0.73;0.50;;;;;;;24.07;49.98;99453.59;4948719;28;102769;-61
2022/07/12 08:24:04;;;;;;;0.40;0.40;;;;;;;24.10;50.91;99452.44;4941517;28;103015;-62
2022/07/12 08:26:33;;;;;;;0.45;0.45;;;;;;;24.50;49.97;99446.75;4921011;28;103156;-62
2022/07/12 08:29:01;;;;;;;0.63;0.43;;;;;;;25.25;48.24;99444.00;4935895;28;103397;-60
2022/07/12 08:31:29;;;;;;;0.75;0.68;;;;;;;25.98;47.65;99435.78;4948413;28;102888;-61
2022/07/12 08:33:56;;;;;;;0.50;0.50;;;;;;;25.86;47.21;99435.44;4933628;28;102787;-61
2022/07/12 08:36:24;;;;;;;1.35;0.80;;;;;;;25.48;46.18;99436.66;4934679;28;103357;-61
2022/07/12 08:39:00;;;;;;;1.98;0.60;;;;;;;25.02;48.19;99440.53;4938430;28;103291;-61
2022/07/12 08:41:29;;;;;;;0.70;0.60;;;;;;;24.54;49.97;99439.09;4931784;28;102761;-61
2022/07/12 08:43:58;;;;;;;0.85;0.70;;;;;;;25.53;46.93;99452.31;4931839;28;102785;-61
2022/07/12 08:46:26;;;;;;;0.50;0.50;;;;;;;26.78;46.26;99443.69;4931676;28;104180;-61
2022/07/12 08:48:54;;;;;;;1.25;0.70;;;;;;;27.50;45.24;99445.06;4930892;28;103364;-61
2022/07/12 08:51:22;;;;;;;0.90;0.80;;;;;;;26.06;44.55;99449.22;4931876;28;103043;-61
2022/07/12 08:54:06;;;;;;;0.63;0.63;;;;;;;26.31;45.18;99463.25;4946554;28;103794;-61
2022/07/12 08:56:37;;;;;;;0.93;0.60;;;;;;;26.63;44.44;99453.75;4936655;28;103307;-63
2022/07/12 08:59:14;;;;;;;1.50;0.70;;;;;;;28.05;45.13;99454.91;4940445;28;103250;-63
2022/07/12 09:01:45;;;;;;;0.88;0.60;;;;;;;28.33;42.18;99456.63;4940246;28;102636;-63
2022/07/12 09:04:14;;;;;;;1.08;0.70;;;;;;;27.58;42.06;99463.03;4940520;28;103916;-61
2022/07/12 09:06:42;;;;;;;1.10;0.60;;;;;;;28.23;41.55;99462.47;4938268;28;103855;-63
2022/07/12 09:09:10;;;;;;;1.00;0.60;;;;;;;27.99;41.90;99458.41;4938660;28;103465;-62
2022/07/12 09:11:40;;;;;;;3.22;0.63;;;;;;;26.90;44.33;99466.53;4921459;28;102883;-63
2022/07/12 09:14:08;;;;;;;0.90;0.40;;;;;;;26.19;44.09;99465.63;4939382;28;104273;-62
2022/07/12 09:16:37;;;;;;;;;;;;;;;26.26;44.31;99471.13;4922675;28;103309;-61
2022/07/12 09:19:17;;;;;;;1.98;0.50;;;;;;;25.26;46.33;99457.31;4938376;28;103174;-61
2022/07/12 09:21:50;;;;;;;1.45;0.57;;;;;;;24.25;49.02;99472.25;4937521;28;103032;-61
2022/07/12 09:24:19;;;;;;;0.88;0.52;;;;;;;26.14;46.28;99462.66;4939898;28;103332;-61
2022/07/12 09:26:49;;;;;;;1.10;0.70;;;;;;;26.30;44.84;99456.16;4941034;28;104461;-62
2022/07/12 09:29:18;;;;;;;2.17;0.60;;;;;;;26.72;43.78;99458.03;4920061;28;103183;-61
2022/07/12 09:37:21;;;;;;;;;;;;;;;25.72;45.83;99455.25;4926061;28;103283;-59
2022/07/12 09:39:49;;;;;;;0.73;0.60;;;;;;;26.63;42.63;99460.03;4952129;28;103251;-60
2022/07/12 09:42:19;;;;;;;1.15;0.60;;;;;;;28.05;41.55;99448.63;4939005;28;103097;-60
2022/07/12 09:44:55;;;;;;;1.92;0.40;;;;;;;29.05;42.16;99449.38;4941627;28;103917;-60
2022/07/12 09:47:28;;;;;;;2.15;0.43;;;;;;;28.58;40.29;99449.56;4941532;28;103027;-60
2022/07/12 09:49:56;;;;;;;1.20;0.50;;;;;;;28.11;42.17;99456.81;4941010;28;103390;-60
2022/07/12 09:52:26;;;;;;;0.80;0.60;;;;;;;26.50;43.05;99449.06;4922861;28;102730;-60
2022/07/12 09:54:56;;;;;;;0.40;0.40;;;;;;;27.59;43.09;99448.44;4939770;28;103169;-60
2022/07/12 09:57:28;;;;;;;2.55;0.70;;;;;;;26.89;43.58;99454.84;4936970;28;103291;-61
2022/07/12 10:00:00;;;;;;;0.95;0.60;;;;;;;25.92;44.96;99461.75;4939130;28;103276;-60
2022/07/12 10:02:40;;;;;;;0.50;0.50;;;;;;;26.14;44.53;99459.09;4937674;28;102660;-61
2022/07/12 10:05:11;;;;;;;0.80;0.50;;;;;;;25.88;45.70;99465.88;4938186;28;103985;-61
2022/07/12 10:07:40;;;;;;;1.45;0.50;;;;;;;26.84;44.35;99453.75;4921812;28;103411;-61
2022/07/12 10:10:11;;;;;;;0.40;0.40;;;;;;;27.69;42.86;99465.19;4921472;28;103195;-61
2022/07/12 10:12:41;;;;;;;1.85;0.43;;;;;;;27.20;42.45;99461.75;4920960;28;103303;-60
2022/07/12 10:15:16;;;;;;;1.00;0.60;;;;;;;26.43;43.67;99462.56;4921608;28;103110;-60
2022/07/12 10:17:54;;;;;;;1.55;0.65;;;;;;;26.98;44.15;99463.66;4937645;28;103993;-60
2022/07/12 10:20:26;;;;;;;0.40;0.40;;;;;;;28.02;42.42;99460.69;4939178;28;103714;-61
2022/07/12 10:22:55;;;;;;;0.93;0.30;;;;;;;29.17;42.16;99461.28;4934292;28;102644;-61
2022/07/12 10:25:32;;;;;;;0.30;0.30;;;;;;;29.64;38.47;99457.41;4934799;28;102978;-61
2022/07/12 10:28:01;;;;;;;0.70;0.50;;;;;;;29.13;39.75;99460.03;4938837;28;103380;-60
2022/07/12 10:30:31;;;;;;;0.50;0.40;;;;;;;28.67;40.24;99461.94;4938224;28;103155;-60
2022/07/12 10:33:00;;;;;;;0.68;0.55;;;;;;;29.01;39.33;99467.16;4935473;28;102646;-60
2022/07/12 10:35:30;;;;;;;0.50;0.50;;;;;;;29.36;39.76;99459.63;4934075;28;103912;-61
2022/07/12 10:38:18;;;;;;;0.40;0.40;;;;;;;30.34;40.02;99453.75;4937853;28;103485;-60
2022/07/12 10:40:48;;;;;;;0.50;0.43;;;;;;;30.30;38.37;99446.22;4935145;28;103252;-61
2022/07/12 10:43:18;;;;;;;1.60;0.45;;;;;;;30.31;37.69;99448.75;4932207;28;102725;-61
2022/07/12 10:45:48;;;;;;;1.17;0.47;;;;;;;27.57;40.07;99453.22;4945659;28;102821;-61
2022/07/12 10:48:27;;;;;;;0.50;0.30;;;;;;;29.55;39.92;99442.38;4936830;28;103445;-60
2022/07/12 10:50:57;;;;;;;0.50;0.40;;;;;;;29.99;36.60;99435.28;4917819;28;103178;-63
2022/07/12 10:53:29;;;;;;;0.90;0.40;;;;;;;27.56;40.02;99433.41;4915127;28;103048;-60
2022/07/12 10:56:11;;;;;;;0.98;0.40;;;;;;;26.82;41.64;99435.00;4931965;28;102937;-60
2022/07/12 10:58:41;;;;;;;0.40;0.40;;;;;;;28.07;40.94;99424.84;4935658;28;103914;-60
2022/07/12 11:01:11;;;;;;;0.30;0.30;;;;;;;28.30;39.31;99427.16;4934183;28;103244;-60
2022/07/12 11:03:42;;;;;;;0.50;0.30;;;;;;;27.67;39.78;99431.13;4935855;28;103228;-60
2022/07/12 11:06:11;;;;;;;0.90;0.30;;;;;;;28.25;39.66;99432.38;4934002;28;104349;-60
2022/07/12 11:08:55;;;;;;;0.70;0.50;;;;;;;28.13;39.48;99426.69;4934396;28;103271;-61
2022/07/12 11:11:25;;;;;;;2.35;0.50;;;;;;;28.63;38.41;99425.34;4932924;28;103227;-61
2022/07/12 11:13:54;;;;;;;0.43;0.40;;;;;;;29.58;37.75;99424.78;4917404;28;102671;-61
2022/07/12 11:16:23;;;;;;;0.40;0.40;;;;;;;27.90;40.06;99435.16;4915293;28;103911;-60
2022/07/12 11:18:53;;;;;;;0.40;0.40;;;;;;;27.34;41.42;99434.47;4933031;28;103307;-61
2022/07/12 11:21:24;;;;;;;0.90;0.40;;;;;;;28.82;39.27;99424.50;4934879;28;103295;-61
2022/07/12 11:23:53;;;;;;;0.50;0.30;;;;;;;30.50;37.98;99418.84;4916706;28;103035;-61
2022/07/12 11:30:49;;;;;;;1.17;0.40;;;;;;;29.31;39.19;99430.31;4925709;28;103043;-60
2022/07/12 11:33:17;;;;;;;2.15;0.45;;;;;;;29.47;37.97;99433.63;4919446;28;103290;-60
2022/07/12 11:35:49;;;;;;;0.60;0.40;;;;;;;29.55;39.29;99417.03;4926678;28;102787;-60
2022/07/12 11:38:25;;;;;;;1.10;0.32;;;;;;;30.66;37.62;99415.56;4927085;28;103040;-60
2022/07/12 11:41:00;;;;;;;0.45;0.40;;;;;;;29.97;36.68;99413.72;4928110;28;104346;-60
2022/07/12 11:43:32;;;;;;;0.70;0.40;;;;;;;28.29;38.87;99406.47;4929314;28;105171;-60
2022/07/12 11:46:01;;;;;;;0.73;0.40;;;;;;;28.45;39.22;99419.66;4929298;28;102693;-60
2022/07/12 11:48:32;;;;;;;0.77;0.30;;;;;;;28.69;38.98;99419.06;4929814;28;102763;-61
2022/07/12 11:51:06;;;;;;;0.85;0.38;;;;;;;29.76;36.91;99422.16;4932097;28;103370;-61
2022/07/12 11:53:35;;;;;;;0.68;0.40;;;;;;;30.28;37.91;99421.91;4927607;28;103170;-61